KFWZ

South Pass

South Pass, Wyoming, USA
METAR KFWZ 230515Z AUTO 35010KT 10SM CLR 05/M01 A3021 RMK AO2
Observed Flight Rules
Oct-23 @ 05:15 UTC (30 minutes ago) Visual Flight Rules
Wind Visibility Clouds
350° at 10 knots 10 miles
  • Clear skies
Temperatures Readings
Current 5°C / 41°F
Dewpoint -1°C / 30°F
Humidity 66%
Altimeter 30.21" Hg
Pressure 1023 hPa
Elevation 2588
METAR KFWZ 230515Z AUTO 35010KT 10SM CLR 05/M01 A3021 RMK AO2
Observed Flight Rules
Oct-23 @ 05:15 UTC
(30 minutes ago)
VFR
Wind Visibility
350° at 10 knots 10 miles
Clouds
  • Clear skies
Temperature Dewpoint
5°C / 41°F -1°C / 30°F
Humidity Altimeter Pressure
66% 30.21" Hg 1023 hPa